createdAt,value
2024-03-03T00:04:31.603Z,52.2
2024-03-03T00:09:49.957Z,52.6
2024-03-03T00:15:08.111Z,51.5
2024-03-03T00:20:26.433Z,51.9
2024-03-03T00:25:44.766Z,51.8
2024-03-03T00:31:03.101Z,51.8
2024-03-03T00:36:21.105Z,52.6
2024-03-03T00:41:39.406Z,52
2024-03-03T00:46:57.569Z,53.1
2024-03-03T00:52:15.872Z,52.2
2024-03-03T00:57:34.380Z,52.9
2024-03-03T01:02:37.158Z,52.3
2024-03-03T01:07:55.302Z,52.2
2024-03-03T01:13:13.517Z,52.6
2024-03-03T01:18:31.680Z,51.4
2024-03-03T01:23:50.019Z,52.7
2024-03-03T01:29:07.959Z,51.7
2024-03-03T01:34:26.044Z,52.7
2024-03-03T01:39:44.366Z,52.9
2024-03-03T01:45:02.508Z,52.7
2024-03-03T01:50:20.661Z,52.1
2024-03-03T01:55:38.842Z,53
2024-03-03T02:00:57.221Z,53.1
2024-03-03T02:06:15.556Z,52.8
2024-03-03T02:11:34.085Z,53.3
2024-03-03T02:16:52.233Z,53.3
2024-03-03T02:22:10.659Z,52.2
2024-03-03T02:27:28.831Z,52.3
2024-03-03T02:32:47.058Z,51.9
2024-03-03T02:38:05.405Z,52.6
2024-03-03T02:43:23.695Z,52.4
2024-03-03T02:48:42.556Z,53.1
2024-03-03T02:54:00.757Z,51.8
2024-03-03T02:59:19.076Z,52.4
2024-03-03T03:04:37.412Z,52.3
2024-03-03T03:09:55.841Z,52.8
2024-03-03T03:15:14.371Z,52.8
2024-03-03T03:20:32.706Z,52.7
2024-03-03T03:25:50.862Z,51.7
2024-03-03T03:30:53.428Z,52.8
2024-03-03T03:36:11.795Z,52.4
2024-03-03T03:41:29.965Z,52
2024-03-03T03:46:48.294Z,52
2024-03-03T03:52:06.487Z,53.1
2024-03-03T03:57:24.747Z,52.2
2024-03-03T04:02:42.670Z,52.4
2024-03-03T04:08:00.606Z,52.8
2024-03-03T04:13:19.104Z,52.8
2024-03-03T04:18:37.522Z,51.6
2024-03-03T04:23:56.073Z,52.5
2024-03-03T04:29:14.285Z,52
2024-03-03T04:34:32.634Z,52.7
2024-03-03T04:39:50.617Z,52.2
2024-03-03T04:45:08.783Z,52.7
2024-03-03T04:50:26.964Z,52.7
2024-03-03T04:55:45.058Z,52.4
2024-03-03T05:01:03.694Z,52.5
2024-03-03T05:06:22.135Z,51.8
2024-03-03T05:11:40.051Z,52.5
2024-03-03T05:16:58.668Z,52
2024-03-03T05:22:17.243Z,51.8
2024-03-03T05:27:35.648Z,52.7
2024-03-03T05:32:55.375Z,51.7
2024-03-03T05:38:13.702Z,51.7
2024-03-03T05:43:32.041Z,52.2
2024-03-03T05:48:50.049Z,51.8
2024-03-03T05:54:08.046Z,52.4
2024-03-03T05:59:26.397Z,51.8
2024-03-03T06:04:45.096Z,51.2
2024-03-03T06:10:03.598Z,52.5
2024-03-03T06:15:21.694Z,52.5
2024-03-03T06:20:40.042Z,51.7
2024-03-03T06:25:58.564Z,51.4
2024-03-03T06:31:16.987Z,51.8
2024-03-03T06:36:35.342Z,51.6
2024-03-03T06:41:53.640Z,51.6
2024-03-03T06:47:13.238Z,52.5
2024-03-03T06:52:31.703Z,52.4
2024-03-03T06:57:50.308Z,51.9
2024-03-03T07:03:08.606Z,52.7
2024-03-03T07:08:26.949Z,52.8
2024-03-03T07:13:45.384Z,52.6
2024-03-03T07:19:03.475Z,52.5
2024-03-03T07:24:21.839Z,51.9
2024-03-03T07:29:39.940Z,52
2024-03-03T07:34:58.285Z,52.6
2024-03-03T07:40:16.435Z,52.4
2024-03-03T07:45:34.583Z,52
2024-03-03T07:50:54.206Z,52.6
2024-03-03T07:56:12.862Z,51.3
2024-03-03T08:01:31.191Z,51.2
2024-03-03T08:06:49.268Z,52.4
2024-03-03T08:12:09.329Z,52
2024-03-03T08:17:27.814Z,51.7
2024-03-03T08:22:46.080Z,51.3
2024-03-03T08:28:04.238Z,50.7
2024-03-03T08:33:22.759Z,51.3
2024-03-03T08:38:41.031Z,50.9
2024-03-03T08:43:58.968Z,50.2
2024-03-03T08:49:17.635Z,50.3
2024-03-03T08:54:35.755Z,50.5
2024-03-03T08:59:53.924Z,50.7
2024-03-03T09:05:13.308Z,50
2024-03-03T09:10:31.564Z,50.4
2024-03-03T09:15:49.943Z,50.6
2024-03-03T09:21:07.865Z,50.3
2024-03-03T09:26:25.980Z,50.7
2024-03-03T09:31:28.912Z,50.3
2024-03-03T09:36:47.618Z,49.5
2024-03-03T09:42:05.984Z,50.3
2024-03-03T09:47:24.328Z,50.1
2024-03-03T09:52:42.471Z,47.9
2024-03-03T09:58:00.639Z,49.3
2024-03-03T10:03:18.613Z,49.4
2024-03-03T10:08:36.960Z,49.2
2024-03-03T10:13:55.072Z,49.1
2024-03-03T10:19:13.561Z,48.4
2024-03-03T10:24:31.707Z,48.3
2024-03-03T10:29:50.122Z,48.8
2024-03-03T10:35:08.054Z,49.3
2024-03-03T10:40:27.585Z,49.6
2024-03-03T10:45:46.041Z,49
2024-03-03T10:51:04.586Z,49.1
2024-03-03T10:56:22.747Z,49.8
2024-03-03T11:01:41.609Z,49.2
2024-03-03T11:06:59.981Z,49
2024-03-03T11:12:18.201Z,49.6
2024-03-03T11:17:36.373Z,49
2024-03-03T11:22:54.598Z,49
2024-03-03T11:28:15.770Z,49.5
2024-03-03T11:33:33.775Z,49.5
2024-03-03T11:38:51.914Z,49.4
2024-03-03T11:44:10.253Z,49
2024-03-03T11:49:28.845Z,48.7
2024-03-03T11:54:47.339Z,49.1
2024-03-03T12:00:05.476Z,49.1
2024-03-03T12:05:24.001Z,47.6
2024-03-03T12:10:42.191Z,46.1
2024-03-03T12:16:00.374Z,46
2024-03-03T12:21:18.693Z,47.7
2024-03-03T12:26:37.058Z,48.1
2024-03-03T12:31:55.049Z,49.1
2024-03-03T12:37:13.216Z,49.5
2024-03-03T12:42:31.376Z,49.7
2024-03-03T12:47:49.634Z,49.2
2024-03-03T12:53:31.473Z,48.6
2024-03-03T12:58:53.385Z,49.2
2024-03-03T13:04:12.032Z,49.1
2024-03-03T13:09:32.072Z,48.6
2024-03-03T13:14:50.413Z,49.4
2024-03-03T13:20:08.431Z,49.5
2024-03-03T13:25:26.901Z,49.7
2024-03-03T13:30:50.783Z,51.2
2024-03-03T13:36:08.850Z,50
2024-03-03T13:41:27.176Z,50
2024-03-03T13:46:45.590Z,49.8
2024-03-03T13:52:04.019Z,50.4
2024-03-03T13:57:22.335Z,50.7
2024-03-03T14:02:40.705Z,50.5
2024-03-03T14:07:58.968Z,50.7
2024-03-03T14:13:17.382Z,49.8
2024-03-03T14:18:35.634Z,49.9
2024-03-03T14:23:53.968Z,49.7
2024-03-03T14:29:12.639Z,49.7
2024-03-03T14:34:31.051Z,50.6
2024-03-03T14:39:49.530Z,49.6
2024-03-03T14:45:08.098Z,49.4
2024-03-03T14:50:26.229Z,50.2
2024-03-03T14:55:44.597Z,46.5
2024-03-03T15:01:03.161Z,47.7
2024-03-03T15:06:24.163Z,48.3
2024-03-03T15:11:42.617Z,49.9
2024-03-03T15:17:03.601Z,50.3
2024-03-03T15:22:22.361Z,51.5
2024-03-03T15:27:40.612Z,51.4
2024-03-03T15:32:58.992Z,51
2024-03-03T15:38:17.242Z,47.1
2024-03-03T15:43:35.777Z,48.8
2024-03-03T15:48:54.148Z,49.4
2024-03-03T15:54:12.814Z,49.1
2024-03-03T15:59:30.961Z,48.5
2024-03-03T16:04:49.166Z,49.1
2024-03-03T16:10:07.308Z,49.3
2024-03-03T16:15:25.825Z,49.2
2024-03-03T16:20:43.970Z,48.6
2024-03-03T16:26:02.358Z,48.8
2024-03-03T16:31:21.129Z,48.7
2024-03-03T16:36:39.520Z,48.1
2024-03-03T16:41:57.991Z,47.9
2024-03-03T16:47:17.647Z,47.8
2024-03-03T16:52:35.910Z,48.1
2024-03-03T16:57:54.592Z,47.9
2024-03-03T17:03:12.627Z,46.9
2024-03-03T17:08:30.573Z,48.1
2024-03-03T17:13:48.949Z,48.1
2024-03-03T17:19:07.329Z,48
2024-03-03T17:24:25.892Z,48.6
2024-03-03T17:29:44.061Z,48.2
2024-03-03T17:35:02.691Z,47.9
2024-03-03T17:40:21.140Z,49.1
2024-03-03T17:45:40.629Z,48.9
2024-03-03T17:50:58.949Z,48.3
2024-03-03T17:56:17.090Z,48.8
2024-03-03T18:01:35.479Z,50.8
2024-03-03T18:06:54.607Z,49.4
2024-03-03T18:12:13.311Z,50.2
2024-03-03T18:17:31.687Z,50.5
2024-03-03T18:22:50.075Z,50.8
2024-03-03T18:28:08.347Z,51.6
2024-03-03T18:33:26.831Z,52.9
2024-03-03T18:38:44.928Z,51.8
2024-03-03T18:44:03.088Z,52.5
2024-03-03T18:49:21.383Z,52.8
2024-03-03T18:54:39.781Z,51
2024-03-03T18:59:57.921Z,52
2024-03-03T19:05:16.387Z,52.2
2024-03-03T19:10:34.735Z,51.7
2024-03-03T19:15:53.125Z,52.1
2024-03-03T19:21:11.761Z,51.7
2024-03-03T19:26:30.283Z,52
2024-03-03T19:31:48.765Z,51.8
2024-03-03T19:37:06.971Z,52
2024-03-03T19:42:25.185Z,52.2
2024-03-03T19:47:43.229Z,51.4
2024-03-03T19:53:01.528Z,51.2
2024-03-03T19:58:19.630Z,51.4
2024-03-03T20:03:37.708Z,51.4
2024-03-03T20:08:55.687Z,51.2
2024-03-03T20:14:14.567Z,51.8
2024-03-03T20:19:32.908Z,51.6
2024-03-03T20:24:51.196Z,51.5
2024-03-03T20:30:09.565Z,51
2024-03-03T20:35:27.846Z,51.2
2024-03-03T20:40:45.989Z,51.5
2024-03-03T20:46:04.359Z,51.6
2024-03-03T20:51:22.520Z,51.6
2024-03-03T20:56:41.141Z,51.3
2024-03-03T21:01:59.454Z,51.6
2024-03-03T21:07:17.933Z,51.8
2024-03-03T21:12:36.279Z,51.3
2024-03-03T21:17:54.680Z,51.6
2024-03-03T21:23:13.001Z,51.5
2024-03-03T21:28:31.186Z,51.4
2024-03-03T21:33:49.846Z,51.4
2024-03-03T21:39:08.182Z,50.9
2024-03-03T21:44:26.607Z,51.5
2024-03-03T21:49:44.731Z,51.3
2024-03-03T21:55:03.158Z,50.9
2024-03-03T22:00:21.571Z,51.3
2024-03-03T22:05:39.723Z,51.5
2024-03-03T22:10:58.350Z,50.7
2024-03-03T22:16:16.822Z,50.6
2024-03-03T22:21:35.301Z,51.2
2024-03-03T22:26:53.483Z,51.3
2024-03-03T22:32:11.825Z,51.4
2024-03-03T22:37:30.264Z,50.6
2024-03-03T22:42:49.461Z,51.3
2024-03-03T22:48:07.917Z,51.5
2024-03-03T22:53:26.141Z,51.3
2024-03-03T22:58:28.845Z,51.3
2024-03-03T23:03:47.105Z,50.6
2024-03-03T23:09:05.235Z,50.8
2024-03-03T23:14:23.566Z,51.5
2024-03-03T23:19:41.860Z,51
2024-03-03T23:25:00.321Z,50.3
2024-03-03T23:30:18.326Z,50.4
2024-03-03T23:35:21.246Z,51
2024-03-03T23:40:39.569Z,51.1
2024-03-03T23:45:57.868Z,51.2
2024-03-03T23:51:15.841Z,50.8
2024-03-03T23:56:33.996Z,51
